Bern, Kansas
Current Conditions -  °F | °C
As of 6:53 PM on Monday 22 Dec 2014 (Local Time) from KFNB Reporting Station
Light Rain Light Rain  
Wind Chill: 36°   Ceiling: 3200
Heat Index: 43°   Visibility: 8mi
Dew Point: 43°   Wind: 14mph
Humidity: 100%   Direction: 290°WNW
Pressure: 29.47"   Gusts: NA
Location:  39.96°N, 95.97°W
Report Text: KFNB 230053Z AUTO 29012KT 8SM -RA FEW016 SCT024 OVC032 06/06 A2947 RMK AO2 RAE10B45 SLP982 P0000 T00610061
Loading
Personal Weather Stations






























Interactive Weather Map New forecast layout! Learn more

10-Day Weather Forecast

Advertisements
Track Severe Weather on mobile